Aérodrome :
LOGIN :

S'inscrire | Disclaimer

   EN    FR    IT 

 










Légende :    VFR   VFR Marginal   IFR   IFR Intensif   IFR Très Intensif
Visi : 
Plafond : 
>= 8 km
>= 3000ft
5 à 8 km
1000 à 3000 ft
1500m à 5 km
500 à 1000 ft
800 à 1500m
200 à 500 ft
< 800m
< 200 ft
Symboles :   Orages  Brouillard  Fortes neiges  Fortes précipitations  Vent > 20 kt
SIGMETs :   Divers  Orages  Givrage  Turbulence  Onde Orograph.  Cendres Volcan.







- Altitude de l'aérodrome : 6 ft
- Code IATA : PSA


LIRP - Galileo Galilei Pisa

DERNIER METAR :
  • 220745Z 10012KT CAVOK 18/07 Q1009 NOSIG

METARs EXPIRÉS :
  • 220715Z 12006KT CAVOK 17/07 Q1009 NOSIG
  • 220645Z 08011KT CAVOK 17/06 Q1009 NOSIG
  • 220615Z 09008KT CAVOK 15/06 Q1009 NOSIG
  • 220545Z 09009KT CAVOK 15/06 Q1010 NOSIG
  • 220515Z 10011KT CAVOK 15/05 Q1010 NOSIG

TAF TAF LIRP
Valide du 22 à 06h jusqu'au 23 à 06h UTC


220500Z 2206/2306 09015KT CAVOK
TEMPO 2209/2221 07018G30KT
BECMG 2214/2216 9999 SCT040 BKN060
BECMG 2216/2218 5000 RA BR SCT020 BKN040
TEMPO 2218/2224 3000 SHRA FEW015CB BKN030
BECMG 2222/2224 09008KT
Pas de NOTAMs connus pour ce terrain.



MET'MAP, la Météo Aéronautique d'un coup d'oeil ! - Copyright ORBIFLY Décembre 2007 - Disclaimer

ORBIFLY MET'MAP TEAM :

Programmation & Développement : Alexandra Zaïnal
Conception & Développement : Baudouin d'Aumeries
Co-Programmation & Développement : Marc-Olivier Méhu
Soutien technique & logistique : Manuel Goepfert

Contact : metmap@orbifly.com




SOURCES & CREDITS :

   NOAA